Terminal Aerodrome Forecast
Issued by NWS Tuscon, AZ

Home | Current Version | Previous Version | Text Only | Print | Product List | Glossary On
Versions: 1 2 3 4 5 6 7 8 9 10 11 12 13
000
FTUS45 KTWC 282300
TAFDUG
TAF
KDUG 282339Z 0100/0124 21017G27KT P6SM SCT060 SCT080
     FM010300 20011KT P6SM SCT060 SCT080
     FM010700 16008KT P6SM SCT060
     FM011700 18014G22KT P6SM BKN050
     FM012100 20020G28KT P6SM SCT030 BKN040=

USA.gov is the U.S. government's official web portal to all federal, state and local government web resources and services.